createdAt,value
2017-07-22T00:00:59.925Z,0
2017-07-22T00:02:15.824Z,0
2017-07-22T00:03:29.492Z,0
2017-07-22T00:04:43.552Z,0
2017-07-22T00:05:57.061Z,0
2017-07-22T00:07:10.931Z,0
2017-07-22T00:08:25.232Z,0
2017-07-22T00:09:39.168Z,0
2017-07-22T00:10:53.181Z,0
2017-07-22T00:12:06.708Z,0
2017-07-22T00:13:20.286Z,0
2017-07-22T00:14:33.806Z,0
2017-07-22T00:15:47.305Z,0
2017-07-22T00:17:01.279Z,0
2017-07-22T00:18:14.876Z,0
2017-07-22T00:19:28.594Z,0
2017-07-22T00:20:42.265Z,0
2017-07-22T00:21:55.789Z,0
2017-07-22T00:23:09.686Z,0
2017-07-22T00:24:23.581Z,0
2017-07-22T00:25:37.183Z,0
2017-07-22T00:26:50.878Z,0
2017-07-22T00:28:04.769Z,0
2017-07-22T00:29:18.916Z,0
2017-07-22T00:30:32.521Z,0
2017-07-22T00:31:46.085Z,0
2017-07-22T00:32:59.949Z,0
2017-07-22T00:34:13.877Z,0
2017-07-22T00:35:28.017Z,0
2017-07-22T00:36:41.576Z,0
2017-07-22T00:37:55.111Z,0
2017-07-22T00:39:09.060Z,0
2017-07-22T00:40:22.933Z,0
2017-07-22T00:42:02.575Z,0
2017-07-22T00:43:16.452Z,0
2017-07-22T00:44:30.302Z,0
2017-07-22T00:45:44.488Z,0
2017-07-22T00:46:58.013Z,0
2017-07-22T00:48:12.226Z,0
2017-07-22T00:49:25.796Z,0
2017-07-22T00:50:39.760Z,0
2017-07-22T00:51:53.433Z,0
2017-07-22T00:53:06.932Z,0
2017-07-22T00:54:21.087Z,0
2017-07-22T00:55:35.342Z,0
2017-07-22T00:56:48.900Z,0
2017-07-22T00:58:02.412Z,0
2017-07-22T00:59:16.054Z,0
2017-07-22T01:00:30.006Z,0
2017-07-22T01:01:43.540Z,0
2017-07-22T01:02:57.244Z,0
2017-07-22T01:04:10.738Z,0
2017-07-22T01:05:24.635Z,0
2017-07-22T01:06:38.688Z,0
2017-07-22T01:07:52.303Z,0
2017-07-22T01:09:05.894Z,0
2017-07-22T01:10:19.863Z,0
2017-07-22T01:11:33.925Z,0
2017-07-22T01:12:47.873Z,0
2017-07-22T01:14:01.724Z,0
2017-07-22T01:15:15.244Z,0
2017-07-22T01:16:28.857Z,0
2017-07-22T01:17:42.837Z,0
2017-07-22T01:18:56.762Z,0
2017-07-22T01:20:10.279Z,0
2017-07-22T01:21:23.807Z,0
2017-07-22T01:22:37.353Z,0
2017-07-22T01:24:18.187Z,0
2017-07-22T01:25:32.364Z,0
2017-07-22T01:26:45.867Z,0
2017-07-22T01:27:59.398Z,0
2017-07-22T01:29:12.930Z,0
2017-07-22T01:30:26.817Z,0
2017-07-22T01:31:40.705Z,0
2017-07-22T01:32:54.247Z,0
2017-07-22T01:34:08.095Z,0
2017-07-22T01:35:21.642Z,0
2017-07-22T01:36:36.292Z,0
2017-07-22T01:37:50.254Z,0
2017-07-22T01:39:04.427Z,0
2017-07-22T01:40:17.944Z,0
2017-07-22T01:41:31.498Z,0
2017-07-22T01:42:45.221Z,0
2017-07-22T01:43:59.492Z,0
2017-07-22T01:45:12.993Z,0
2017-07-22T01:46:26.766Z,0
2017-07-22T01:47:40.279Z,0
2017-07-22T01:48:54.202Z,0
2017-07-22T01:50:08.302Z,0
2017-07-22T01:51:22.125Z,0
2017-07-22T01:52:35.967Z,0
2017-07-22T01:53:49.531Z,0
2017-07-22T01:55:03.041Z,0
2017-07-22T01:56:16.934Z,0
2017-07-22T01:57:30.499Z,0
2017-07-22T01:58:44.031Z,0
2017-07-22T01:59:57.686Z,0
2017-07-22T02:01:11.528Z,0
2017-07-22T02:02:25.360Z,0
2017-07-22T02:03:39.162Z,0
2017-07-22T02:04:52.896Z,0
2017-07-22T02:06:07.120Z,0
2017-07-22T02:07:20.648Z,0
2017-07-22T02:08:35.013Z,0
2017-07-22T02:09:48.577Z,0
2017-07-22T02:11:02.419Z,0
2017-07-22T02:12:15.953Z,0
2017-07-22T02:13:29.765Z,0
2017-07-22T02:14:43.763Z,0
2017-07-22T02:15:57.617Z,0
2017-07-22T02:17:11.169Z,0
2017-07-22T02:18:24.680Z,0
2017-07-22T02:19:38.508Z,0
2017-07-22T02:20:52.402Z,0
2017-07-22T02:22:05.918Z,0
2017-07-22T02:23:19.583Z,0
2017-07-22T02:24:33.605Z,0
2017-07-22T02:25:47.498Z,0
2017-07-22T02:27:01.281Z,0
2017-07-22T02:28:14.831Z,0
2017-07-22T02:29:28.667Z,0
2017-07-22T02:30:43.049Z,0
2017-07-22T02:31:56.724Z,0
2017-07-22T02:33:10.568Z,0
2017-07-22T02:34:24.121Z,0
2017-07-22T02:35:37.626Z,0
2017-07-22T02:36:51.588Z,0
2017-07-22T02:38:05.150Z,0
2017-07-22T02:39:18.985Z,0
2017-07-22T02:40:32.811Z,0
2017-07-22T02:41:46.878Z,0
2017-07-22T02:43:00.418Z,0
2017-07-22T02:44:14.068Z,0
2017-07-22T02:45:28.162Z,0
2017-07-22T02:46:42.090Z,0
2017-07-22T02:47:55.620Z,0
2017-07-22T02:49:09.671Z,0
2017-07-22T02:50:23.223Z,0
2017-07-22T02:51:37.091Z,0
2017-07-22T02:52:50.675Z,0
2017-07-22T02:54:04.211Z,0
2017-07-22T02:55:17.729Z,0
2017-07-22T02:56:31.235Z,0
2017-07-22T02:57:45.082Z,0
2017-07-22T02:58:58.936Z,0
2017-07-22T03:00:13.111Z,0
2017-07-22T03:01:26.943Z,0
2017-07-22T03:02:40.888Z,0
2017-07-22T03:03:54.724Z,0
2017-07-22T03:05:08.262Z,0
2017-07-22T03:06:21.807Z,0
2017-07-22T03:07:35.345Z,0
2017-07-22T03:08:48.962Z,0
2017-07-22T03:10:02.764Z,0
2017-07-22T03:11:16.277Z,0
2017-07-22T03:12:29.819Z,0
2017-07-22T03:13:43.442Z,0
2017-07-22T03:14:57.340Z,0
2017-07-22T03:16:11.133Z,0
2017-07-22T03:17:24.640Z,0
2017-07-22T03:18:38.202Z,0
2017-07-22T03:19:52.253Z,0
2017-07-22T03:21:05.767Z,0
2017-07-22T03:22:19.801Z,0
2017-07-22T03:23:33.312Z,0
2017-07-22T03:24:47.276Z,0
2017-07-22T03:26:01.540Z,0
2017-07-22T03:27:15.039Z,0
2017-07-22T03:28:29.181Z,0
2017-07-22T03:29:42.755Z,0
2017-07-22T03:30:56.770Z,0
2017-07-22T03:32:10.292Z,0
2017-07-22T03:33:24.131Z,0
2017-07-22T03:34:38.069Z,0
2017-07-22T03:35:52.035Z,0
2017-07-22T03:37:05.649Z,0
2017-07-22T03:38:19.403Z,0
2017-07-22T03:39:33.290Z,0
2017-07-22T03:40:47.166Z,0
2017-07-22T03:43:46.841Z,0
2017-07-22T03:45:00.341Z,0
2017-07-22T03:46:14.329Z,0
2017-07-22T03:47:28.013Z,0
2017-07-22T03:48:41.876Z,0
2017-07-22T03:49:55.467Z,0
2017-07-22T03:51:08.964Z,5
2017-07-22T03:52:22.781Z,5
2017-07-22T03:53:36.446Z,5
2017-07-22T03:54:49.950Z,5
2017-07-22T03:56:03.473Z,5
2017-07-22T03:57:17.300Z,5
2017-07-22T03:58:31.409Z,5
2017-07-22T03:59:45.273Z,10
2017-07-22T04:00:58.800Z,10
2017-07-22T04:02:12.447Z,10
2017-07-22T04:03:25.965Z,10
2017-07-22T04:04:40.021Z,10
2017-07-22T04:05:54.222Z,10
2017-07-22T04:07:08.048Z,10
2017-07-22T04:08:21.882Z,10
2017-07-22T04:09:35.649Z,10
2017-07-22T04:10:49.552Z,15
2017-07-22T04:12:03.093Z,15
2017-07-22T04:13:16.636Z,15
2017-07-22T04:14:30.243Z,15
2017-07-22T04:15:44.126Z,15
2017-07-22T04:16:57.924Z,15
2017-07-22T04:18:11.453Z,15
2017-07-22T04:19:25.025Z,15
2017-07-22T04:20:38.631Z,15
2017-07-22T04:21:52.166Z,15
2017-07-22T04:23:05.978Z,20
2017-07-22T04:24:19.480Z,20
2017-07-22T04:25:33.189Z,25
2017-07-22T04:26:46.829Z,25
2017-07-22T04:28:00.340Z,25
2017-07-22T04:29:14.155Z,25
2017-07-22T04:30:27.659Z,30
2017-07-22T04:31:41.204Z,30
2017-07-22T04:32:54.744Z,30
2017-07-22T04:34:08.649Z,35
2017-07-22T04:35:22.462Z,35
2017-07-22T04:36:36.026Z,35
2017-07-22T04:37:49.554Z,35
2017-07-22T04:39:03.127Z,35
2017-07-22T04:40:16.986Z,40
2017-07-22T04:41:30.817Z,40
2017-07-22T04:42:44.666Z,40
2017-07-22T04:43:58.546Z,40
2017-07-22T04:45:12.404Z,40
2017-07-22T04:46:26.460Z,45
2017-07-22T04:47:40.948Z,45
2017-07-22T04:48:54.464Z,45
2017-07-22T04:50:08.399Z,50
2017-07-22T04:51:21.903Z,55
2017-07-22T04:52:35.439Z,60
2017-07-22T04:53:49.220Z,65
2017-07-22T04:55:02.797Z,65
2017-07-22T04:56:16.974Z,70
2017-07-22T04:57:30.802Z,75
2017-07-22T04:58:44.665Z,80
2017-07-22T04:59:58.759Z,80
2017-07-22T05:01:12.314Z,85
2017-07-22T05:02:25.859Z,95
2017-07-22T05:03:39.572Z,105
2017-07-22T05:04:53.215Z,115
2017-07-22T05:06:07.016Z,130
2017-07-22T05:07:21.231Z,150
2017-07-22T05:08:34.744Z,185
2017-07-22T05:09:48.240Z,180
2017-07-22T05:11:01.832Z,175
2017-07-22T05:12:15.674Z,195
2017-07-22T05:13:29.212Z,180
2017-07-22T05:14:42.715Z,285
2017-07-22T05:15:56.463Z,385
2017-07-22T05:17:10.104Z,510
2017-07-22T05:18:24.014Z,540
2017-07-22T05:19:37.530Z,270
2017-07-22T05:20:51.039Z,240
2017-07-22T05:22:04.719Z,220
2017-07-22T05:23:18.302Z,200
2017-07-22T05:24:32.136Z,180
2017-07-22T05:25:45.652Z,175
2017-07-22T05:26:59.193Z,170
2017-07-22T05:28:12.722Z,190
2017-07-22T05:29:26.293Z,280
2017-07-22T05:30:40.443Z,165
2017-07-22T05:31:54.290Z,280
2017-07-22T05:33:07.913Z,260
2017-07-22T05:34:21.842Z,170
2017-07-22T05:35:36.028Z,160
2017-07-22T05:36:50.216Z,150
2017-07-22T05:38:03.725Z,150
2017-07-22T05:39:17.361Z,150
2017-07-22T05:40:30.958Z,150
2017-07-22T05:41:44.905Z,130
2017-07-22T05:42:58.727Z,115
2017-07-22T05:44:12.542Z,230
2017-07-22T05:45:26.210Z,240
2017-07-22T05:46:39.772Z,290
2017-07-22T05:47:53.956Z,260
2017-07-22T05:49:08.078Z,210
2017-07-22T05:50:21.709Z,150
2017-07-22T05:51:35.265Z,155
2017-07-22T05:52:48.785Z,145
2017-07-22T05:54:02.612Z,130
2017-07-22T05:55:16.469Z,120
2017-07-22T05:56:30.307Z,90
2017-07-22T05:57:43.807Z,95
2017-07-22T05:58:57.318Z,105
2017-07-22T06:00:10.913Z,110
2017-07-22T06:01:25.019Z,115
2017-07-22T06:02:38.608Z,105
2017-07-22T06:03:52.174Z,125
2017-07-22T06:05:05.728Z,110
2017-07-22T06:06:19.699Z,125
2017-07-22T06:07:33.530Z,135
2017-07-22T06:08:47.157Z,135
2017-07-22T06:10:01.000Z,110
2017-07-22T06:11:15.163Z,100
2017-07-22T06:12:28.776Z,90
2017-07-22T06:13:42.583Z,100
2017-07-22T06:14:56.488Z,105
2017-07-22T06:16:10.134Z,105
2017-07-22T06:17:23.665Z,100
2017-07-22T06:18:37.179Z,90
2017-07-22T06:19:51.069Z,75
2017-07-22T06:21:04.593Z,80
2017-07-22T06:22:18.133Z,75
2017-07-22T06:23:31.679Z,85
2017-07-22T06:24:45.538Z,90
2017-07-22T06:25:59.422Z,100
2017-07-22T06:27:12.948Z,120
2017-07-22T06:28:26.459Z,135
2017-07-22T06:29:40.806Z,115
2017-07-22T06:30:55.072Z,120
2017-07-22T06:32:08.881Z,105
2017-07-22T06:33:22.960Z,110
2017-07-22T06:34:36.485Z,90
2017-07-22T06:35:50.246Z,80
2017-07-22T06:37:03.824Z,85
2017-07-22T06:38:17.993Z,100
2017-07-22T06:39:31.523Z,105
2017-07-22T06:40:45.435Z,115
2017-07-22T06:41:59.270Z,145
2017-07-22T06:43:13.223Z,175
2017-07-22T06:44:27.026Z,215
2017-07-22T06:45:40.875Z,225
2017-07-22T06:46:54.458Z,175
2017-07-22T06:48:08.371Z,170
2017-07-22T06:49:22.400Z,170
2017-07-22T06:50:36.500Z,205
2017-07-22T06:51:50.080Z,210
2017-07-22T06:53:03.597Z,225
2017-07-22T06:54:17.432Z,255
2017-07-22T06:55:30.962Z,330
2017-07-22T06:56:44.876Z,310
2017-07-22T06:57:58.380Z,275
2017-07-22T06:59:12.882Z,255
2017-07-22T07:00:26.426Z,240
2017-07-22T07:01:39.962Z,255
2017-07-22T07:02:53.961Z,330
2017-07-22T07:04:07.506Z,355
2017-07-22T07:05:21.032Z,305
2017-07-22T07:06:34.546Z,305
2017-07-22T07:07:48.772Z,285
2017-07-22T07:09:02.657Z,265
2017-07-22T07:10:16.551Z,325
2017-07-22T07:11:30.276Z,340
2017-07-22T07:12:43.896Z,385
2017-07-22T07:13:57.408Z,375
2017-07-22T07:15:11.225Z,375
2017-07-22T07:16:25.079Z,340
2017-07-22T07:17:38.854Z,325
2017-07-22T07:18:52.605Z,330
2017-07-22T07:20:06.476Z,315
2017-07-22T07:21:20.280Z,295
2017-07-22T07:22:34.863Z,275
2017-07-22T07:23:48.569Z,245
2017-07-22T07:25:02.128Z,195
2017-07-22T07:26:15.949Z,195
2017-07-22T07:27:30.244Z,295
2017-07-22T07:28:44.152Z,215
2017-07-22T07:29:58.609Z,180
2017-07-22T07:31:12.178Z,190
2017-07-22T07:32:25.772Z,190
2017-07-22T07:33:39.697Z,215
2017-07-22T07:34:54.522Z,225
2017-07-22T07:36:08.282Z,280
2017-07-22T07:37:21.885Z,290
2017-07-22T07:38:35.490Z,290
2017-07-22T07:39:49.679Z,295
2017-07-22T07:41:03.241Z,285
2017-07-22T07:42:17.017Z,280
2017-07-22T07:43:30.556Z,290
2017-07-22T07:44:44.286Z,330
2017-07-22T07:45:58.523Z,355
2017-07-22T07:47:12.072Z,345
2017-07-22T07:48:25.694Z,335
2017-07-22T07:49:39.732Z,330
2017-07-22T07:50:53.578Z,315
2017-07-22T07:52:07.759Z,310
2017-07-22T07:53:21.397Z,320
2017-07-22T07:54:35.057Z,330
2017-07-22T07:55:48.605Z,310
2017-07-22T07:57:02.593Z,300
2017-07-22T07:58:16.728Z,300
2017-07-22T07:59:30.400Z,295
2017-07-22T08:00:44.112Z,285
2017-07-22T08:01:58.145Z,285
2017-07-22T08:03:11.976Z,320
2017-07-22T08:04:26.103Z,345
2017-07-22T08:05:39.667Z,360
2017-07-22T08:06:53.243Z,340
2017-07-22T08:08:06.928Z,350
2017-07-22T08:09:20.789Z,365
2017-07-22T08:10:34.613Z,340
2017-07-22T08:11:48.449Z,315
2017-07-22T08:13:02.032Z,335
2017-07-22T08:14:15.580Z,330
2017-07-22T08:15:29.122Z,310
2017-07-22T08:16:44.713Z,305
2017-07-22T08:18:14.243Z,325
2017-07-22T08:19:28.252Z,310
2017-07-22T08:20:41.853Z,275
2017-07-22T08:21:55.718Z,275
2017-07-22T08:23:09.935Z,290
2017-07-22T08:24:23.495Z,330
2017-07-22T08:25:37.692Z,335
2017-07-22T08:26:51.371Z,285
2017-07-22T08:28:05.179Z,250
2017-07-22T08:29:18.830Z,220
2017-07-22T08:30:32.872Z,190
2017-07-22T08:31:46.423Z,200
2017-07-22T08:33:00.376Z,215
2017-07-22T08:34:14.452Z,200
2017-07-22T08:35:28.239Z,205
2017-07-22T08:36:42.270Z,265
2017-07-22T08:37:55.837Z,300
2017-07-22T08:39:09.747Z,320
2017-07-22T08:40:23.996Z,320
2017-07-22T08:41:37.620Z,330
2017-07-22T08:42:51.596Z,315
2017-07-22T08:44:08.105Z,295
2017-07-22T08:45:21.692Z,275
2017-07-22T08:46:35.939Z,260
2017-07-22T08:47:49.629Z,245
2017-07-22T08:49:04.217Z,250
2017-07-22T08:50:18.257Z,240
2017-07-22T08:51:34.104Z,230
2017-07-22T08:52:49.606Z,220
2017-07-22T08:54:03.998Z,250
2017-07-22T08:55:17.542Z,270
2017-07-22T08:56:31.238Z,285
2017-07-22T08:57:44.793Z,285
2017-07-22T08:58:59.097Z,285
2017-07-22T09:00:12.661Z,275
2017-07-22T09:01:26.555Z,285
2017-07-22T09:02:40.420Z,275
2017-07-22T09:03:54.304Z,275
2017-07-22T09:05:08.274Z,315
2017-07-22T09:06:21.936Z,355
2017-07-22T09:07:35.909Z,350
2017-07-22T09:08:49.853Z,325
2017-07-22T09:10:03.426Z,305
2017-07-22T09:11:17.255Z,295
2017-07-22T09:12:30.813Z,290
2017-07-22T09:13:44.504Z,300
2017-07-22T09:14:58.046Z,335
2017-07-22T09:16:11.971Z,370
2017-07-22T09:17:26.036Z,350
2017-07-22T09:18:39.976Z,325
2017-07-22T09:19:53.910Z,285
2017-07-22T09:21:08.612Z,270
2017-07-22T09:22:22.477Z,275
2017-07-22T09:23:36.433Z,275
2017-07-22T09:24:50.006Z,280
2017-07-22T09:26:03.860Z,265
2017-07-22T09:27:17.737Z,225
2017-07-22T09:28:31.412Z,215
2017-07-22T09:29:45.277Z,195
2017-07-22T09:30:59.014Z,200
2017-07-22T09:32:12.643Z,225
2017-07-22T09:33:26.346Z,240
2017-07-22T09:34:40.694Z,245
2017-07-22T09:35:55.700Z,225
2017-07-22T09:37:09.982Z,210
2017-07-22T09:38:23.611Z,210
2017-07-22T09:39:37.583Z,215
2017-07-22T09:40:51.182Z,230
2017-07-22T09:42:04.831Z,230
2017-07-22T09:43:18.440Z,215
2017-07-22T09:44:32.404Z,205
2017-07-22T09:45:46.219Z,190
2017-07-22T09:46:59.784Z,190
2017-07-22T09:48:13.677Z,185
2017-07-22T09:49:27.302Z,190
2017-07-22T09:50:41.024Z,210
2017-07-22T09:51:54.642Z,215
2017-07-22T09:53:08.670Z,215
2017-07-22T09:54:22.535Z,210
2017-07-22T09:55:36.289Z,205
2017-07-22T09:56:50.259Z,200
2017-07-22T09:58:04.169Z,200
2017-07-22T09:59:18.504Z,200
2017-07-22T10:00:32.400Z,200
2017-07-22T10:01:46.041Z,195
2017-07-22T10:03:01.037Z,205
2017-07-22T10:04:17.277Z,225
2017-07-22T10:05:31.678Z,250
2017-07-22T10:06:48.597Z,260
2017-07-22T10:08:06.896Z,245
2017-07-22T10:09:24.418Z,240
2017-07-22T10:10:39.946Z,220
2017-07-22T10:11:55.141Z,210
2017-07-22T10:13:09.740Z,200
2017-07-22T10:14:24.300Z,195
2017-07-22T10:15:38.819Z,190
2017-07-22T10:16:54.034Z,190
2017-07-22T10:18:08.131Z,185
2017-07-22T10:19:22.428Z,185
2017-07-22T10:20:36.220Z,185
2017-07-22T10:21:51.187Z,175
2017-07-22T10:23:05.416Z,180
2017-07-22T10:24:20.187Z,180
2017-07-22T10:25:33.783Z,175
2017-07-22T10:26:47.754Z,180
2017-07-22T10:28:01.455Z,195
2017-07-22T10:29:15.117Z,225
2017-07-22T10:30:29.381Z,230
2017-07-22T10:31:43.540Z,235
2017-07-22T10:32:57.115Z,245
2017-07-22T10:34:11.080Z,260
2017-07-22T10:35:25.056Z,275
2017-07-22T10:36:38.965Z,280
2017-07-22T10:37:52.503Z,270
2017-07-22T10:39:06.107Z,260
2017-07-22T10:40:20.297Z,255
2017-07-22T10:41:37.555Z,250
2017-07-22T10:42:52.440Z,235
2017-07-22T10:44:06.760Z,230
2017-07-22T10:45:20.836Z,220
2017-07-22T10:46:34.636Z,220
2017-07-22T10:47:48.549Z,225
2017-07-22T10:49:02.402Z,230
2017-07-22T10:50:16.364Z,230
2017-07-22T10:51:30.118Z,220
2017-07-22T10:52:44.173Z,210
2017-07-22T10:53:58.137Z,200
2017-07-22T10:55:12.162Z,165
2017-07-22T10:56:25.802Z,145
2017-07-22T10:57:39.474Z,135
2017-07-22T10:58:53.539Z,130
2017-07-22T11:00:08.135Z,135
2017-07-22T11:01:24.099Z,135
2017-07-22T11:02:37.963Z,130
2017-07-22T11:03:51.993Z,135
2017-07-22T11:05:05.691Z,140
2017-07-22T11:06:19.429Z,150
2017-07-22T11:07:33.315Z,140
2017-07-22T11:08:47.236Z,140
2017-07-22T11:10:01.959Z,150
2017-07-22T11:11:16.559Z,160
2017-07-22T11:12:30.247Z,170
2017-07-22T11:13:44.425Z,175
2017-07-22T11:14:58.320Z,165
2017-07-22T11:16:12.291Z,160
2017-07-22T11:17:25.893Z,155
2017-07-22T11:18:39.510Z,140
2017-07-22T11:19:54.367Z,125
2017-07-22T11:21:09.410Z,110
2017-07-22T11:22:23.844Z,105
2017-07-22T11:23:38.208Z,105
2017-07-22T11:24:53.272Z,105
2017-07-22T11:26:07.503Z,115
2017-07-22T11:27:21.140Z,135
2017-07-22T11:28:35.917Z,150
2017-07-22T11:29:51.087Z,145
2017-07-22T11:31:07.090Z,125
2017-07-22T11:32:24.640Z,110
2017-07-22T11:33:38.880Z,100
2017-07-22T11:34:55.552Z,100
2017-07-22T11:36:12.609Z,100
2017-07-22T11:37:28.560Z,95
2017-07-22T11:38:42.954Z,100
2017-07-22T11:39:57.739Z,100
2017-07-22T11:41:11.714Z,100
2017-07-22T11:42:25.866Z,105
2017-07-22T11:43:39.700Z,100
2017-07-22T11:44:54.181Z,95
2017-07-22T11:46:08.166Z,95
2017-07-22T11:47:22.442Z,90
2017-07-22T11:48:36.417Z,90
2017-07-22T11:49:49.965Z,85
2017-07-22T11:51:03.786Z,85
2017-07-22T11:52:17.422Z,80
2017-07-22T11:53:31.309Z,75
2017-07-22T11:54:44.983Z,75
2017-07-22T11:55:58.838Z,70
2017-07-22T11:57:12.727Z,70
2017-07-22T11:58:29.887Z,65
2017-07-22T11:59:44.248Z,65
2017-07-22T12:00:57.837Z,65
2017-07-22T12:02:12.788Z,65
2017-07-22T12:03:26.705Z,70
2017-07-22T12:04:41.375Z,75
2017-07-22T12:05:56.262Z,85
2017-07-22T12:07:09.780Z,95
2017-07-22T12:08:24.464Z,105
2017-07-22T12:09:43.144Z,115
2017-07-22T12:10:59.588Z,130
2017-07-22T12:12:16.184Z,130
2017-07-22T12:13:35.087Z,140
2017-07-22T12:14:50.539Z,150
2017-07-22T12:16:08.336Z,155
2017-07-22T12:17:25.084Z,170
2017-07-22T12:18:44.098Z,190
2017-07-22T12:20:02.835Z,200
2017-07-22T12:21:18.497Z,200
2017-07-22T12:22:34.088Z,200
2017-07-22T12:23:48.872Z,190
2017-07-22T12:25:06.064Z,170
2017-07-22T12:27:02.394Z,170
2017-07-22T12:28:16.523Z,185
2017-07-22T12:29:30.185Z,220
2017-07-22T12:30:44.978Z,260
2017-07-22T12:31:58.937Z,300
2017-07-22T12:33:13.391Z,305
2017-07-22T12:34:27.488Z,305
2017-07-22T12:35:42.547Z,310
2017-07-22T12:36:56.478Z,310
2017-07-22T12:38:10.480Z,310
2017-07-22T12:39:24.606Z,320
2017-07-22T12:40:38.249Z,320
2017-07-22T12:41:52.709Z,305
2017-07-22T12:43:06.654Z,280
2017-07-22T12:44:20.916Z,255
2017-07-22T12:45:35.101Z,235
2017-07-22T12:46:48.962Z,225
2017-07-22T12:48:02.540Z,205
2017-07-22T12:49:16.259Z,190
2017-07-22T12:50:30.092Z,185
2017-07-22T12:51:43.632Z,180
2017-07-22T12:52:57.995Z,180
2017-07-22T12:54:11.580Z,175
2017-07-22T12:55:25.119Z,175
2017-07-22T12:56:39.006Z,175
2017-07-22T12:57:52.581Z,175
2017-07-22T12:59:06.274Z,170
2017-07-22T13:00:19.915Z,170
2017-07-22T13:01:34.165Z,165
2017-07-22T13:02:48.118Z,165
2017-07-22T13:04:01.686Z,165
2017-07-22T13:05:15.314Z,170
2017-07-22T13:06:29.181Z,195
2017-07-22T13:07:42.737Z,205
2017-07-22T13:08:57.540Z,185
2017-07-22T13:10:11.449Z,185
2017-07-22T13:11:25.328Z,175
2017-07-22T13:12:39.004Z,175
2017-07-22T13:13:52.525Z,175
2017-07-22T13:15:06.653Z,175
2017-07-22T13:16:20.566Z,175
2017-07-22T13:17:34.125Z,180
2017-07-22T13:18:48.103Z,185
2017-07-22T13:20:01.687Z,185
2017-07-22T13:21:15.559Z,190
2017-07-22T13:22:29.111Z,190
2017-07-22T13:23:42.711Z,190
2017-07-22T13:24:56.332Z,190
2017-07-22T13:26:10.447Z,190
2017-07-22T13:27:24.299Z,185
2017-07-22T13:28:37.835Z,195
2017-07-22T13:29:51.363Z,195
2017-07-22T13:31:05.370Z,195
2017-07-22T13:32:21.204Z,195
2017-07-22T13:33:37.488Z,190
2017-07-22T13:34:52.874Z,185
2017-07-22T13:36:06.502Z,200
2017-07-22T13:37:20.362Z,195
2017-07-22T13:38:33.893Z,175
2017-07-22T13:39:47.936Z,165
2017-07-22T13:41:01.919Z,165
2017-07-22T13:42:15.836Z,125
2017-07-22T13:43:29.690Z,105
2017-07-22T13:44:43.223Z,95
2017-07-22T13:45:57.059Z,85
2017-07-22T13:47:10.639Z,80
2017-07-22T13:48:24.504Z,75
2017-07-22T13:49:38.035Z,75
2017-07-22T13:50:52.178Z,70
2017-07-22T13:52:06.138Z,65
2017-07-22T13:53:19.705Z,60
2017-07-22T13:54:33.244Z,60
2017-07-22T13:55:46.800Z,55
2017-07-22T13:57:00.468Z,55
2017-07-22T13:58:14.616Z,55
2017-07-22T13:59:28.468Z,55
2017-07-22T14:00:42.352Z,60
2017-07-22T14:01:56.064Z,70
2017-07-22T14:03:09.622Z,85
2017-07-22T14:04:23.434Z,80
2017-07-22T14:05:38.028Z,80
2017-07-22T14:06:51.572Z,80
2017-07-22T14:08:05.483Z,85
2017-07-22T14:09:19.336Z,80
2017-07-22T14:10:33.156Z,80
2017-07-22T14:11:46.697Z,80
2017-07-22T14:13:00.271Z,85
2017-07-22T14:14:13.948Z,85
2017-07-22T14:15:27.579Z,95
2017-07-22T14:16:41.731Z,100
2017-07-22T14:17:55.351Z,105
2017-07-22T14:19:09.100Z,115
2017-07-22T14:20:22.974Z,130
2017-07-22T14:21:36.481Z,135
2017-07-22T14:22:50.320Z,140
2017-07-22T14:24:03.910Z,150
2017-07-22T14:25:17.750Z,165
2017-07-22T14:26:31.336Z,175
2017-07-22T14:27:44.918Z,180
2017-07-22T14:28:59.102Z,215
2017-07-22T14:30:12.866Z,245
2017-07-22T14:31:27.631Z,270
2017-07-22T14:32:41.301Z,245
2017-07-22T14:33:55.511Z,225
2017-07-22T14:35:09.660Z,205
2017-07-22T14:36:23.222Z,190
2017-07-22T14:37:36.769Z,180
2017-07-22T14:38:50.307Z,175
2017-07-22T14:40:04.142Z,170
2017-07-22T14:41:18.500Z,165
2017-07-22T14:42:32.269Z,160
2017-07-22T14:43:46.287Z,150
2017-07-22T14:44:59.823Z,145
2017-07-22T14:46:13.555Z,145
2017-07-22T14:47:27.416Z,145
2017-07-22T14:48:40.993Z,135
2017-07-22T14:49:54.897Z,135
2017-07-22T14:51:08.586Z,125
2017-07-22T14:52:22.695Z,130
2017-07-22T14:53:36.646Z,130
2017-07-22T14:54:50.430Z,125
2017-07-22T14:56:03.988Z,125
2017-07-22T14:57:17.625Z,125
2017-07-22T14:58:31.300Z,130
2017-07-22T14:59:45.150Z,135
2017-07-22T15:00:58.741Z,130
2017-07-22T15:02:12.389Z,125
2017-07-22T15:03:29.225Z,135
2017-07-22T15:04:43.390Z,150
2017-07-22T15:05:57.543Z,160
2017-07-22T15:07:11.132Z,180
2017-07-22T15:08:24.661Z,195
2017-07-22T15:09:38.206Z,180
2017-07-22T15:10:52.034Z,160
2017-07-22T15:12:06.120Z,150
2017-07-22T15:13:19.705Z,135
2017-07-22T15:14:33.303Z,125
2017-07-22T15:15:47.320Z,120
2017-07-22T15:17:01.530Z,120
2017-07-22T15:18:15.669Z,120
2017-07-22T15:19:29.450Z,120
2017-07-22T15:20:43.552Z,120
2017-07-22T15:21:57.088Z,120
2017-07-22T15:23:11.282Z,120
2017-07-22T15:24:25.368Z,120
2017-07-22T15:25:39.287Z,125
2017-07-22T15:26:53.424Z,125
2017-07-22T15:28:08.174Z,125
2017-07-22T15:29:22.818Z,130
2017-07-22T15:30:41.537Z,135
2017-07-22T15:31:55.123Z,155
2017-07-22T15:33:09.220Z,175
2017-07-22T15:34:23.075Z,190
2017-07-22T15:35:42.991Z,170
2017-07-22T15:36:58.165Z,155
2017-07-22T15:38:12.640Z,145
2017-07-22T15:39:26.228Z,140
2017-07-22T15:40:40.999Z,135
2017-07-22T15:41:54.713Z,130
2017-07-22T15:43:08.989Z,125
2017-07-22T15:44:23.243Z,125
2017-07-22T15:45:37.642Z,120
2017-07-22T15:46:51.267Z,125
2017-07-22T15:48:14.168Z,135
2017-07-22T15:49:30.136Z,150
2017-07-22T15:50:44.217Z,160
2017-07-22T15:51:58.307Z,160
2017-07-22T15:53:12.964Z,160
2017-07-22T15:54:26.654Z,150
2017-07-22T15:55:40.501Z,130
2017-07-22T15:56:54.103Z,125
2017-07-22T15:58:07.792Z,115
2017-07-22T15:59:21.851Z,110
2017-07-22T16:00:36.902Z,105
2017-07-22T16:01:51.138Z,120
2017-07-22T16:03:04.650Z,165
2017-07-22T16:04:18.421Z,165
2017-07-22T16:05:33.231Z,150
2017-07-22T16:06:46.823Z,150
2017-07-22T16:08:01.089Z,155
2017-07-22T16:09:15.217Z,160
2017-07-22T16:10:28.927Z,175
2017-07-22T16:11:42.656Z,190
2017-07-22T16:12:56.203Z,200
2017-07-22T16:14:11.869Z,195
2017-07-22T16:15:26.044Z,205
2017-07-22T16:16:39.942Z,210
2017-07-22T16:17:53.640Z,215
2017-07-22T16:19:07.214Z,225
2017-07-22T16:20:21.429Z,225
2017-07-22T16:21:35.421Z,220
2017-07-22T16:22:49.936Z,220
2017-07-22T16:24:03.842Z,215
2017-07-22T16:25:17.339Z,215
2017-07-22T16:26:31.169Z,210
2017-07-22T16:27:45.223Z,195
2017-07-22T16:28:58.877Z,200
2017-07-22T16:30:12.679Z,205
2017-07-22T16:31:27.361Z,200
2017-07-22T16:32:41.904Z,185
2017-07-22T16:33:55.884Z,195
2017-07-22T16:35:09.927Z,205
2017-07-22T16:36:23.701Z,195
2017-07-22T16:37:38.089Z,175
2017-07-22T16:38:52.209Z,165
2017-07-22T16:40:05.928Z,145
2017-07-22T16:41:20.538Z,125
2017-07-22T16:42:34.377Z,135
2017-07-22T16:43:48.037Z,155
2017-07-22T16:45:01.931Z,170
2017-07-22T16:46:15.599Z,180
2017-07-22T16:47:29.243Z,175
2017-07-22T16:48:42.927Z,170
2017-07-22T16:49:56.658Z,165
2017-07-22T16:51:10.651Z,160
2017-07-22T16:52:24.618Z,150
2017-07-22T16:53:38.474Z,145
2017-07-22T16:54:52.240Z,155
2017-07-22T16:56:05.812Z,170
2017-07-22T16:57:19.714Z,175
2017-07-22T16:58:33.365Z,165
2017-07-22T16:59:47.017Z,145
2017-07-22T17:01:00.944Z,140
2017-07-22T17:02:14.710Z,135
2017-07-22T17:03:28.847Z,130
2017-07-22T17:04:42.460Z,130
2017-07-22T17:05:56.038Z,125
2017-07-22T17:07:09.620Z,120
2017-07-22T17:08:23.364Z,110
2017-07-22T17:09:37.435Z,105
2017-07-22T17:10:50.968Z,100
2017-07-22T17:12:05.033Z,100
2017-07-22T17:13:18.762Z,110
2017-07-22T17:14:32.423Z,115
2017-07-22T17:15:46.241Z,115
2017-07-22T17:16:59.868Z,110
2017-07-22T17:18:14.164Z,105
2017-07-22T17:19:27.914Z,105
2017-07-22T17:20:41.858Z,105
2017-07-22T17:21:55.760Z,105
2017-07-22T17:23:10.097Z,100
2017-07-22T17:24:24.367Z,95